Time;durP1;ratioP1;P1;durP2;ratioP2;P2;SDS_P1;SDS_P2;PMS_P1;PMS_P2;Temp;Humidity;BMP_temperature;BMP_pressure;BME280_temperature;BME280_humidity;BME280_pressure;Samples;Min_cycle;Max_cycle;Signal;HPM_P1;HPM_P2
2022/05/13 00:02:08;;;;;;;17.17;3.13;;;;;;;12.00;69.01;101731.00;5115896;28;20115;-63
2022/05/13 00:04:34;;;;;;;10.93;3.22;;;;;;;11.96;68.95;101724.00;5116115;28;20114;-64
2022/05/13 00:06:59;;;;;;;15.93;3.00;;;;;;;12.01;69.81;101733.63;5115426;28;20027;-65
2022/05/13 00:09:56;;;;;;;8.98;2.83;;;;;;;11.96;69.54;101727.50;5115732;28;20028;-64
2022/05/13 00:12:10;;;;;;;14.77;3.60;;;;;;;11.94;70.20;101726.66;5115839;28;20062;-67
2022/05/13 00:14:36;;;;;;;14.18;3.47;;;;;;;11.98;70.37;101712.63;5115278;28;20471;-64
2022/05/13 00:17:01;;;;;;;16.70;3.42;;;;;;;11.94;70.60;101725.81;5115384;28;20059;-63
2022/05/13 00:19:28;;;;;;;10.32;3.15;;;;;;;11.95;70.78;101723.13;5112360;28;20139;-64
2022/05/13 00:21:53;;;;;;;8.82;3.40;;;;;;;11.82;71.33;101716.22;5115497;28;20073;-64
2022/05/13 00:24:18;;;;;;;9.40;3.47;;;;;;;11.93;71.06;101729.31;5115554;28;20059;-65
2022/05/13 00:26:43;;;;;;;14.73;3.95;;;;;;;11.88;71.49;101725.81;5097097;28;20036;-65
2022/05/13 00:29:09;;;;;;;9.50;3.67;;;;;;;11.79;71.26;101724.09;5115448;28;20407;-65
2022/05/13 00:31:34;;;;;;;10.93;3.15;;;;;;;11.73;72.15;101724.97;5115556;28;20058;-66
2022/05/13 00:33:59;;;;;;;10.57;3.80;;;;;;;11.74;72.17;101721.47;5115480;28;20151;-64
2022/05/13 00:36:25;;;;;;;6.50;3.15;;;;;;;11.74;72.37;101726.72;5115474;28;20116;-65
2022/05/13 00:38:50;;;;;;;10.18;3.40;;;;;;;11.76;72.57;101724.13;5115401;28;20475;-64
2022/05/13 00:41:16;;;;;;;10.02;3.60;;;;;;;11.74;72.42;101725.84;5115280;28;20092;-65
2022/05/13 00:43:44;;;;;;;9.40;3.22;;;;;;;11.59;72.24;101710.19;5115342;28;20442;-66
2022/05/13 00:46:09;;;;;;;8.70;3.53;;;;;;;11.64;72.60;101725.00;5115288;28;20043;-66
2022/05/13 00:48:35;;;;;;;8.40;3.10;;;;;;;11.56;72.88;101723.28;5115304;28;20028;-64
2022/05/13 00:51:00;;;;;;;9.40;3.58;;;;;;;11.47;72.70;101719.81;5115640;28;20027;-64
2022/05/13 00:53:27;;;;;;;9.32;3.10;;;;;;;11.53;71.54;101718.94;5115418;28;20375;-66
2022/05/13 00:55:53;;;;;;;12.35;3.88;;;;;;;11.33;71.67;101723.34;5115391;28;20050;-64
2022/05/13 00:58:19;;;;;;;11.50;3.20;;;;;;;11.32;71.67;101717.22;5114722;28;20035;-64
2022/05/13 01:00:46;;;;;;;8.77;2.83;;;;;;;11.30;70.82;101725.97;5114925;28;20036;-65
2022/05/13 01:03:13;;;;;;;10.82;2.83;;;;;;;11.18;70.88;101726.00;5115250;28;20439;-66
2022/05/13 01:05:41;;;;;;;6.45;2.70;;;;;;;11.14;70.80;101717.28;5114807;28;20042;-64
2022/05/13 01:08:08;;;;;;;9.05;2.85;;;;;;;11.23;70.05;101725.13;5115182;28;20038;-64
2022/05/13 01:10:36;;;;;;;6.68;2.60;;;;;;;11.11;70.12;101722.50;5115164;28;20038;-63
2022/05/13 01:13:07;;;;;;;8.02;2.53;;;;;;;11.04;70.50;101731.28;5115052;28;20032;-65
2022/05/13 01:15:35;;;;;;;6.03;2.28;;;;;;;11.04;70.29;101719.06;5115144;28;20043;-66
2022/05/13 01:18:07;;;;;;;10.25;2.78;;;;;;;11.12;69.83;101725.13;5097318;28;20435;-65
2022/05/13 01:20:34;;;;;;;6.43;2.40;;;;;;;11.02;69.81;101720.78;5118243;28;20110;-64
2022/05/13 01:23:09;;;;;;;7.47;2.20;;;;;;;11.01;70.13;101713.81;5118741;28;20035;-65
2022/05/13 01:25:39;;;;;;;5.03;2.05;;;;;;;10.99;70.15;101718.19;5118264;28;20044;-65
2022/05/13 01:28:08;;;;;;;9.05;1.98;;;;;;;10.99;70.20;101718.19;5118579;28;20088;-66
2022/05/13 01:30:34;;;;;;;9.32;2.17;;;;;;;10.99;69.61;101710.31;5118721;28;20092;-64
2022/05/13 01:32:59;;;;;;;7.00;2.17;;;;;;;10.94;69.89;101716.41;5118740;28;20044;-66
2022/05/13 01:35:24;;;;;;;6.43;2.35;;;;;;;10.87;69.86;101722.56;5118807;28;20059;-63
2022/05/13 01:37:51;;;;;;;6.07;2.00;;;;;;;10.90;70.01;101720.81;5118573;28;20111;-66
2022/05/13 01:40:17;;;;;;;7.75;2.00;;;;;;;10.84;69.94;101706.84;5118502;28;20031;-65
2022/05/13 01:42:42;;;;;;;7.20;2.08;;;;;;;10.92;69.54;101723.41;5118527;28;20028;-65
2022/05/13 01:45:10;;;;;;;7.07;2.25;;;;;;;10.98;70.05;101726.03;5118639;28;20092;-65
2022/05/13 01:47:35;;;;;;;8.40;2.30;;;;;;;10.97;69.37;101726.91;5118552;28;20038;-66
2022/05/13 01:50:02;;;;;;;7.63;1.80;;;;;;;11.06;69.36;101721.66;5118352;28;20023;-65
2022/05/13 01:52:27;;;;;;;6.55;1.90;;;;;;;11.15;69.02;101730.38;5117971;28;20019;-63
2022/05/13 01:54:52;;;;;;;6.45;1.80;;;;;;;11.24;68.51;101728.63;5118155;28;20165;-64
2022/05/13 01:57:18;;;;;;;8.45;1.73;;;;;;;11.24;68.35;101721.63;5118264;28;20047;-65
2022/05/13 01:59:43;;;;;;;7.25;2.08;;;;;;;11.19;68.81;101727.75;5118328;28;20046;-62
2022/05/13 02:02:09;;;;;;;6.38;1.80;;;;;;;11.19;68.85;101719.91;5118050;28;20034;-64
2022/05/13 02:04:34;;;;;;;5.72;1.90;;;;;;;11.24;68.41;101728.63;5118002;28;20023;-62
2022/05/13 02:06:59;;;;;;;9.02;1.90;;;;;;;11.21;68.39;101720.75;5118055;28;20499;-65
2022/05/13 02:09:25;;;;;;;6.63;1.98;;;;;;;11.19;68.61;101722.50;5118298;28;20183;-64
2022/05/13 02:11:51;;;;;;;8.32;2.08;;;;;;;11.26;68.70;101730.34;5117826;28;20347;-66
2022/05/13 02:14:18;;;;;;;6.85;1.95;;;;;;;11.22;68.83;101727.75;5117956;28;20047;-65
2022/05/13 02:16:44;;;;;;;6.82;2.05;;;;;;;11.13;69.34;101723.38;5118088;28;20039;-64
2022/05/13 02:19:10;;;;;;;7.63;2.05;;;;;;;11.12;69.38;101722.50;5117883;28;20028;-63
2022/05/13 02:21:36;;;;;;;5.25;1.90;;;;;;;11.11;69.90;101718.16;5117603;28;20425;-64
2022/05/13 02:24:02;;;;;;;9.38;2.10;;;;;;;11.15;70.22;101716.41;5117853;28;20031;-63
2022/05/13 02:26:27;;;;;;;6.85;2.20;;;;;;;11.13;69.91;101712.91;5117471;28;20126;-64
2022/05/13 02:28:53;;;;;;;6.95;2.15;;;;;;;11.07;70.34;101713.81;5117619;28;20036;-64
2022/05/13 02:31:18;;;;;;;8.93;2.30;;;;;;;11.05;70.58;101714.69;5117173;28;20072;-65
2022/05/13 02:33:44;;;;;;;11.50;1.85;;;;;;;10.97;71.00;101716.44;5117470;28;20399;-65
2022/05/13 02:36:11;;;;;;;11.27;2.22;;;;;;;10.98;71.45;101720.78;5100151;28;20031;-63
2022/05/13 02:38:37;;;;;;;10.85;2.92;;;;;;;11.01;71.19;101716.44;5117541;28;20031;-64
2022/05/13 02:41:13;;;;;;;13.38;2.85;;;;;;;11.01;71.23;101713.81;5117368;28;20028;-64
2022/05/13 02:43:46;;;;;;;6.85;2.30;;;;;;;11.10;70.88;101721.63;5117326;28;20034;-64
2022/05/13 02:46:17;;;;;;;10.05;2.58;;;;;;;11.13;70.93;101723.38;5117004;28;20042;-64
2022/05/13 02:48:42;;;;;;;9.38;2.30;;;;;;;11.03;71.76;101716.44;5116817;28;20032;-64
2022/05/13 02:51:07;;;;;;;9.15;2.47;;;;;;;11.07;72.03;101715.56;5117363;28;20035;-63
2022/05/13 02:53:33;;;;;;;7.70;2.20;;;;;;;11.10;71.74;101711.16;5117399;28;20491;-64
2022/05/13 02:55:58;;;;;;;7.65;2.35;;;;;;;11.13;72.10;101712.91;5117075;28;20035;-64
2022/05/13 02:58:23;;;;;;;8.88;2.72;;;;;;;11.11;71.96;101706.78;5117005;28;20057;-65
2022/05/13 03:00:49;;;;;;;10.25;2.83;;;;;;;11.06;72.49;101711.19;5117072;28;20031;-64
2022/05/13 03:03:14;;;;;;;12.00;3.10;;;;;;;11.07;72.55;101710.31;5116742;28;20374;-65
2022/05/13 03:05:40;;;;;;;12.38;3.40;;;;;;;11.06;73.13;101717.31;5116814;28;20036;-64
2022/05/13 03:08:07;;;;;;;11.25;3.00;;;;;;;11.10;73.25;101720.75;5116457;28;20035;-65
2022/05/13 03:10:35;;;;;;;7.97;2.90;;;;;;;11.04;73.86;101708.56;5116747;28;20032;-64
2022/05/13 03:13:00;;;;;;;11.02;3.03;;;;;;;11.20;73.80;101708.53;5116803;28;20065;-64
2022/05/13 03:15:27;;;;;;;11.82;3.35;;;;;;;11.22;73.64;101717.28;5116912;28;20440;-64
2022/05/13 03:17:52;;;;;;;11.50;3.65;;;;;;;11.10;74.35;101713.78;5116113;28;20070;-64
2022/05/13 03:20:19;;;;;;;9.63;3.08;;;;;;;11.19;74.18;101707.66;5116647;28;20100;-65
2022/05/13 03:22:46;;;;;;;8.32;3.03;;;;;;;11.26;74.33;101709.38;5116299;28;20339;-65
2022/05/13 03:25:12;;;;;;;10.45;3.22;;;;;;;11.25;74.27;101712.03;5116532;28;20357;-65
2022/05/13 03:27:38;;;;;;;11.40;3.60;;;;;;;11.19;74.48;101699.81;5116422;28;20324;-66
2022/05/13 03:30:06;;;;;;;14.40;3.55;;;;;;;11.18;74.62;101702.44;5098406;28;20049;-64
2022/05/13 03:32:31;;;;;;;12.90;3.00;;;;;;;11.10;74.99;101697.19;5116060;28;20070;-64
2022/05/13 03:34:56;;;;;;;12.07;3.72;;;;;;;11.13;75.22;101697.19;5115966;28;20032;-65
2022/05/13 03:37:22;;;;;;;10.82;3.42;;;;;;;11.09;75.13;101692.81;5116308;28;20028;-64
2022/05/13 03:39:47;;;;;;;10.23;3.65;;;;;;;10.96;75.87;101697.22;5116601;28;20031;-65
2022/05/13 03:42:12;;;;;;;14.80;3.70;;;;;;;10.93;76.17;101699.84;5115417;28;20453;-65
2022/05/13 03:44:38;;;;;;;11.70;3.50;;;;;;;10.91;76.38;101700.75;5116271;28;20039;-65
2022/05/13 03:47:04;;;;;;;16.20;3.90;;;;;;;10.92;76.66;101697.22;5115772;28;20106;-63
2022/05/13 03:49:29;;;;;;;15.07;4.30;;;;;;;10.88;76.60;101700.75;5116307;28;20412;-63
2022/05/13 03:51:55;;;;;;;14.20;4.10;;;;;;;10.84;77.46;101704.22;5116146;28;20032;-66
2022/05/13 03:54:20;;;;;;;12.43;4.03;;;;;;;10.79;77.77;101697.25;5115985;28;20350;-65
2022/05/13 03:56:45;;;;;;;12.15;3.95;;;;;;;10.77;77.34;101691.13;5116039;28;20367;-65
2022/05/13 03:59:11;;;;;;;10.93;3.90;;;;;;;10.68;78.16;101704.22;5115675;28;20085;-65
2022/05/13 04:01:36;;;;;;;10.38;3.70;;;;;;;10.66;78.26;101703.34;5115332;28;20047;-64
2022/05/13 04:04:01;;;;;;;13.73;4.22;;;;;;;10.68;78.28;101695.50;5115835;28;20439;-63
2022/05/13 04:09:11;;;;;;;15.90;4.47;;;;;;;10.73;78.33;101706.88;5116136;28;20412;-64
2022/05/13 04:11:39;;;;;;;12.75;3.78;;;;;;;10.68;78.59;101705.97;5115896;28;20024;-64
2022/05/13 04:16:52;;;;;;;14.25;4.38;;;;;;;10.66;78.48;101699.88;5115560;28;20445;-64
2022/05/13 04:19:19;;;;;;;15.50;4.15;;;;;;;10.73;78.79;101704.25;5115519;28;20028;-64
2022/05/13 04:21:46;;;;;;;14.32;4.45;;;;;;;10.69;79.04;101711.22;5115863;28;20035;-65
2022/05/13 04:24:15;;;;;;;11.30;3.97;;;;;;;10.69;79.20;101705.09;5115248;28;20043;-65
2022/05/13 04:26:41;;;;;;;18.38;5.03;;;;;;;10.59;79.00;101683.28;5115389;28;20035;-64
2022/05/13 04:29:06;;;;;;;11.75;4.65;;;;;;;10.62;79.29;101705.97;5115662;28;20024;-63
2022/05/13 04:31:38;;;;;;;12.25;4.47;;;;;;;10.67;78.97;101707.72;5115123;28;20466;-63
2022/05/13 04:34:04;;;;;;;13.00;4.18;;;;;;;10.73;79.32;101712.97;5115470;28;20027;-64
2022/05/13 04:36:31;;;;;;;14.43;4.40;;;;;;;10.64;79.37;101688.53;5115294;28;20058;-65
2022/05/13 04:38:57;;;;;;;11.55;3.97;;;;;;;10.73;79.37;101712.97;5114617;28;20020;-63
2022/05/13 04:44:09;;;;;;;10.65;4.05;;;;;;;10.68;79.67;101726.91;5115532;28;20089;-63
2022/05/13 04:46:37;;;;;;;12.98;4.20;;;;;;;10.74;80.13;101727.78;5115629;28;20092;-63
2022/05/13 04:49:03;;;;;;;15.25;4.38;;;;;;;10.77;79.65;101735.63;5115309;28;20035;-62
2022/05/13 04:51:29;;;;;;;14.85;4.55;;;;;;;10.92;79.46;101734.75;5115232;28;20084;-63
2022/05/13 04:53:56;;;;;;;16.08;4.32;;;;;;;11.06;78.68;101743.50;5117143;28;20040;-66
2022/05/13 04:56:23;;;;;;;15.50;3.90;;;;;;;11.03;78.90;101738.25;5119540;28;20088;-65
2022/05/13 04:58:49;;;;;;;13.27;4.47;;;;;;;11.08;78.57;101746.13;5119215;28;20085;-67
2022/05/13 05:01:16;;;;;;;12.18;4.30;;;;;;;11.08;79.02;101735.66;5118838;28;20063;-65
2022/05/13 05:03:42;;;;;;;15.77;4.57;;;;;;;11.10;79.08;101745.22;5119315;28;20036;-64
2022/05/13 05:06:08;;;;;;;12.85;4.32;;;;;;;11.16;78.80;101746.97;5119102;28;20043;-64
2022/05/13 05:08:34;;;;;;;14.68;5.22;;;;;;;11.26;78.63;101759.16;5119011;28;20031;-64
2022/05/13 05:11:01;;;;;;;14.73;4.13;;;;;;;11.33;78.20;101757.41;5119044;28;20435;-63
2022/05/13 05:13:33;;;;;;;12.10;4.15;;;;;;;11.34;78.05;101757.41;5119027;28;20035;-65
2022/05/13 05:15:59;;;;;;;;;;;;;;;11.44;76.69;101759.13;5119507;28;20500;-59
2022/05/13 05:18:24;;;;;;;13.65;4.57;;;;;;;11.32;77.93;101753.91;5119249;28;19912;-63
2022/05/13 05:20:50;;;;;;;12.07;3.90;;;;;;;11.34;78.23;101760.03;5118973;28;20365;-65
2022/05/13 05:23:21;;;;;;;14.43;4.30;;;;;;;11.47;78.32;101763.50;5118623;28;20339;-65
2022/05/13 05:25:47;;;;;;;16.25;4.35;;;;;;;11.49;77.74;101778.34;5118910;28;20348;-65
2022/05/13 05:28:13;;;;;;;10.10;4.05;;;;;;;11.45;78.13;101773.97;5118665;28;20030;-58
2022/05/13 05:30:39;;;;;;;14.48;4.57;;;;;;;11.54;77.95;101777.47;5118698;28;20082;-65
2022/05/13 05:33:05;;;;;;;19.80;5.03;;;;;;;11.65;77.21;101778.31;5118720;28;20036;-64
2022/05/13 05:35:31;;;;;;;13.32;4.28;;;;;;;11.66;77.21;101780.06;5119176;28;20028;-63
2022/05/13 05:37:56;;;;;;;12.63;4.05;;;;;;;11.69;77.33;101794.03;5118360;28;20034;-67
2022/05/13 05:40:22;;;;;;;15.82;4.05;;;;;;;11.71;77.09;101792.28;5118640;28;20032;-69
2022/05/13 05:42:50;;;;;;;14.93;4.30;;;;;;;11.71;77.14;101787.03;5118552;28;20028;-68
2022/05/13 05:45:18;;;;;;;15.55;4.45;;;;;;;11.75;77.12;101790.53;5118579;28;20031;-67
2022/05/13 05:47:43;;;;;;;12.73;4.40;;;;;;;11.86;76.86;101794.00;5118424;28;20038;-67
2022/05/13 05:50:14;;;;;;;12.90;4.03;;;;;;;11.89;76.59;101794.00;5109376;28;20346;-69
2022/05/13 05:52:39;;;;;;;12.95;4.88;;;;;;;11.99;76.64;101800.06;5098149;28;20051;-68
2022/05/13 05:58:11;;;;;;;16.52;4.47;;;;;;;12.28;75.05;101802.59;5097701;28;20185;-69
2022/05/13 06:00:46;;;;;;;16.08;4.82;;;;;;;12.20;75.75;101820.97;5097745;28;20082;-68
2022/05/13 06:03:12;;;;;;;11.80;4.10;;;;;;;12.26;76.02;101806.97;5097438;28;20522;-68
2022/05/13 06:05:37;;;;;;;12.88;3.85;;;;;;;12.43;75.62;101811.25;5097023;28;20066;-68
2022/05/13 06:08:05;;;;;;;12.27;4.30;;;;;;;12.52;75.16;101815.56;5080008;28;20056;-68
2022/05/13 06:10:32;;;;;;;17.10;5.05;;;;;;;12.57;75.06;101816.41;5097706;28;20085;-68
2022/05/13 06:12:57;;;;;;;14.35;4.50;;;;;;;12.76;74.57;101819.81;5097382;28;20338;-68
2022/05/13 06:15:23;;;;;;;17.13;4.88;;;;;;;12.85;74.58;101819.72;5107298;28;20031;-58
2022/05/13 06:17:54;;;;;;;13.98;4.40;;;;;;;12.92;74.36;101820.56;5118157;28;20039;-63
2022/05/13 06:20:22;;;;;;;14.40;4.95;;;;;;;12.99;74.05;101817.03;5117983;28;20034;-65
2022/05/13 06:22:48;;;;;;;12.75;5.00;;;;;;;13.02;73.77;101811.72;5118162;28;20035;-64
2022/05/13 06:25:16;;;;;;;17.42;4.72;;;;;;;13.09;73.71;101821.31;5099415;28;20119;-64
2022/05/13 06:27:44;;;;;;;14.77;4.97;;;;;;;13.24;73.37;101822.06;5117340;28;20116;-64
2022/05/13 06:30:13;;;;;;;13.23;4.72;;;;;;;13.23;73.50;101832.59;5117480;28;20036;-65
2022/05/13 06:32:39;;;;;;;13.20;5.30;;;;;;;13.28;73.46;101828.19;5117804;28;20055;-65
2022/05/13 06:35:05;;;;;;;16.48;5.05;;;;;;;13.26;73.44;101829.94;5114289;28;20358;-65
2022/05/13 06:37:30;;;;;;;17.13;5.07;;;;;;;13.36;73.54;101834.22;5117478;28;20059;-67
2022/05/13 06:39:56;;;;;;;15.90;5.35;;;;;;;13.48;73.35;101834.13;5117196;28;20074;-66
2022/05/13 06:42:21;;;;;;;14.90;5.18;;;;;;;13.61;73.08;101839.28;5117134;28;20038;-64
2022/05/13 06:44:46;;;;;;;14.55;5.40;;;;;;;13.73;72.78;101837.38;5117367;28;20454;-63
2022/05/13 06:47:12;;;;;;;14.55;5.13;;;;;;;13.84;72.46;101839.91;5117129;28;20081;-64
2022/05/13 06:49:37;;;;;;;19.08;5.88;;;;;;;13.85;71.81;101831.97;5117251;28;20028;-64
2022/05/13 06:52:03;;;;;;;16.77;5.20;;;;;;;14.09;71.84;101845.75;5117134;28;20040;-64
2022/05/13 06:54:30;;;;;;;15.20;5.15;;;;;;;14.29;71.14;101849.88;5114092;28;20038;-65
2022/05/13 06:56:55;;;;;;;14.38;5.22;;;;;;;14.45;70.39;101844.44;5117502;28;20031;-65
2022/05/13 06:59:21;;;;;;;12.15;5.20;;;;;;;14.40;70.11;101846.22;5116908;28;20042;-65
2022/05/13 07:01:47;;;;;;;21.08;5.50;;;;;;;14.49;70.52;101849.66;5116687;28;20439;-63
2022/05/13 07:04:12;;;;;;;16.75;5.82;;;;;;;14.55;70.01;101853.97;5117284;28;20108;-64
2022/05/13 07:06:38;;;;;;;17.65;5.38;;;;;;;14.68;69.95;101847.66;5116960;28;20146;-65
2022/05/13 07:09:04;;;;;;;16.08;5.78;;;;;;;14.66;69.66;101846.78;5116912;28;20500;-65
2022/05/13 07:11:29;;;;;;;13.68;6.15;;;;;;;14.67;69.59;101848.53;5116011;28;20027;-65
2022/05/13 07:13:54;;;;;;;14.82;5.75;;;;;;;14.70;69.61;101851.13;5116601;28;20039;-64
2022/05/13 07:16:20;;;;;;;15.55;5.85;;;;;;;14.72;69.76;101845.84;5116198;28;20031;-65
2022/05/13 07:18:46;;;;;;;14.63;5.90;;;;;;;14.63;69.28;101847.72;5116149;28;20028;-64
2022/05/13 07:21:13;;;;;;;17.35;6.57;;;;;;;14.57;69.57;101854.81;5116657;28;20043;-64
2022/05/13 07:23:38;;;;;;;15.20;6.53;;;;;;;14.64;69.78;101840.66;5116578;28;20111;-65
2022/05/13 07:26:03;;;;;;;15.07;6.60;;;;;;;14.70;69.34;101848.50;5116133;28;20131;-64
2022/05/13 07:28:29;;;;;;;15.50;6.55;;;;;;;14.74;69.34;101851.94;5116538;28;20035;-65
2022/05/13 07:30:54;;;;;;;16.40;6.47;;;;;;;14.65;69.12;101842.41;5116358;28;20052;-64
2022/05/13 07:33:21;;;;;;;14.07;6.55;;;;;;;14.68;69.45;101849.41;5116519;28;20105;-66
2022/05/13 07:35:47;;;;;;;13.75;6.28;;;;;;;14.83;69.19;101852.69;5116436;28;20055;-64
2022/05/13 07:38:13;;;;;;;19.30;6.57;;;;;;;14.89;69.37;101857.00;5116333;28;20055;-65
2022/05/13 07:43:21;;;;;;;15.38;6.65;;;;;;;15.01;67.97;101848.03;5116369;28;20116;-65
2022/05/13 07:45:48;;;;;;;15.85;6.82;;;;;;;15.05;67.31;101857.66;5116196;28;20031;-62
2022/05/13 07:48:13;;;;;;;16.13;6.20;;;;;;;15.05;66.42;101855.88;5116257;28;20031;-66
2022/05/13 07:50:39;;;;;;;12.52;5.97;;;;;;;15.07;66.54;101861.09;5116132;28;20332;-64
2022/05/13 07:53:04;;;;;;;15.35;5.93;;;;;;;15.14;66.50;101858.34;5115902;28;20507;-65
2022/05/13 07:55:30;;;;;;;11.95;5.28;;;;;;;15.20;65.76;101870.59;5115850;28;20050;-65
2022/05/13 07:57:55;;;;;;;14.63;5.30;;;;;;;15.34;65.53;101868.59;5115906;28;20027;-65
2022/05/13 08:00:25;;;;;;;10.45;5.55;;;;;;;15.62;64.95;101869.00;5116317;28;20417;-65
2022/05/13 08:02:59;;;;;;;14.40;5.57;;;;;;;15.76;64.47;101866.97;5115886;28;20027;-67
2022/05/13 08:05:27;;;;;;;15.20;4.93;;;;;;;15.85;63.15;101866.81;5115722;28;20432;-65
2022/05/13 08:08:19;;;;;;;12.88;4.88;;;;;;;15.93;64.33;101883.38;5115839;28;20031;-65
2022/05/13 08:10:48;;;;;;;9.93;5.22;;;;;;;15.92;62.91;101872.88;5115454;28;20468;-65
2022/05/13 08:13:14;;;;;;;12.10;5.50;;;;;;;15.93;62.70;101874.59;5115591;28;20023;-65
2022/05/13 08:15:40;;;;;;;13.07;5.45;;;;;;;15.83;62.59;101879.16;5115786;28;20127;-66
2022/05/13 08:18:05;;;;;;;11.50;5.25;;;;;;;15.79;63.63;101879.25;5115442;28;20039;-65
2022/05/13 08:20:31;;;;;;;14.07;5.78;;;;;;;15.80;62.86;101881.88;5115503;28;20028;-65
2022/05/13 08:22:57;;;;;;;14.07;5.25;;;;;;;15.73;62.72;101889.94;5115793;28;20031;-66
2022/05/13 08:25:23;;;;;;;14.68;5.30;;;;;;;15.69;62.64;101877.69;5115376;28;20028;-64
2022/05/13 08:27:49;;;;;;;13.18;4.40;;;;;;;15.76;62.29;101893.38;5115393;28;20359;-66
2022/05/13 08:30:15;;;;;;;13.73;4.70;;;;;;;15.73;62.06;101885.53;5115318;28;20034;-64
2022/05/13 08:32:41;;;;;;;16.48;4.75;;;;;;;15.70;62.49;101896.13;5115312;28;20046;-65
2022/05/13 08:35:06;;;;;;;10.68;4.25;;;;;;;15.98;62.58;101891.22;5115573;28;20028;-64
2022/05/13 08:37:38;;;;;;;13.25;4.00;;;;;;;16.12;60.24;101893.56;5111976;28;20112;-65
2022/05/13 08:40:04;;;;;;;12.98;4.38;;;;;;;16.28;59.89;101884.44;5115342;28;20031;-65
2022/05/13 08:42:44;;;;;;;12.25;3.97;;;;;;;16.38;60.18;101898.34;5115336;28;20023;-64
2022/05/13 08:45:10;;;;;;;13.10;4.32;;;;;;;16.38;58.75;101895.72;5115199;28;20042;-64
2022/05/13 08:47:52;;;;;;;9.27;3.92;;;;;;;16.51;59.35;101899.84;5115694;28;20031;-64
2022/05/13 08:50:25;;;;;;;9.18;3.78;;;;;;;16.59;58.10;101895.25;5115562;28;20039;-65
2022/05/13 08:53:29;;;;;;;9.05;3.70;;;;;;;16.77;59.03;101889.63;5115417;28;20047;-65
2022/05/13 08:56:03;;;;;;;16.85;4.40;;;;;;;16.88;58.35;101890.22;5100063;28;20043;-64
2022/05/13 08:58:35;;;;;;;12.73;4.22;;;;;;;16.98;57.72;101889.09;5114943;28;20483;-65
2022/05/13 09:01:03;;;;;;;15.25;4.53;;;;;;;16.87;57.91;101895.56;5115303;28;20051;-64
2022/05/13 09:03:38;;;;;;;8.07;3.17;;;;;;;16.88;57.67;101892.00;5115362;28;20027;-65
2022/05/13 09:06:36;;;;;;;11.65;3.50;;;;;;;17.34;56.70;101890.00;5115045;28;20039;-63
2022/05/13 09:09:04;;;;;;;12.43;3.55;;;;;;;18.15;53.41;101882.59;5115088;28;20074;-65
2022/05/13 09:11:38;;;;;;;11.20;3.42;;;;;;;18.93;51.71;101880.28;5115258;28;20088;-64
2022/05/13 09:14:21;;;;;;;11.00;3.60;;;;;;;19.41;49.94;101889.31;5115236;28;20358;-64
2022/05/13 09:17:17;;;;;;;11.82;3.10;;;;;;;18.98;50.38;101887.19;5115055;28;20035;-65
2022/05/13 09:20:12;;;;;;;10.98;3.70;;;;;;;18.66;50.78;101882.91;5114620;28;20082;-65
2022/05/13 09:22:52;;;;;;;9.23;3.58;;;;;;;18.36;51.19;101891.69;5114763;28;20032;-65
2022/05/13 09:25:24;;;;;;;10.80;3.88;;;;;;;17.94;51.63;101886.72;5114860;28;20055;-63
2022/05/13 09:27:55;;;;;;;9.68;3.03;;;;;;;17.95;51.63;101892.88;5114788;28;20401;-66
2022/05/13 09:30:23;;;;;;;9.13;2.63;;;;;;;18.24;50.78;101892.94;5114557;28;20427;-65
2022/05/13 09:32:49;;;;;;;6.68;2.63;;;;;;;18.22;49.69;101884.16;5115205;28;20023;-64
2022/05/13 09:35:29;;;;;;;7.93;2.40;;;;;;;18.12;50.95;101900.38;5114691;28;20101;-64
2022/05/13 09:37:55;;;;;;;6.80;2.53;;;;;;;17.95;50.49;101898.19;5114575;28;20134;-64
2022/05/13 09:40:26;;;;;;;8.27;2.83;;;;;;;17.76;51.52;101892.50;5115892;28;20028;-65
2022/05/13 09:42:54;;;;;;;9.45;3.08;;;;;;;17.72;51.42;101901.44;5117978;28;20023;-64
2022/05/13 09:45:41;;;;;;;8.68;2.92;;;;;;;17.71;52.49;101900.56;5118768;28;20031;-65
2022/05/13 09:48:18;;;;;;;9.90;3.20;;;;;;;17.58;52.53;101907.06;5117850;28;20371;-64
2022/05/13 09:50:53;;;;;;;10.65;2.65;;;;;;;17.55;51.51;101906.25;5118439;28;20380;-65
2022/05/13 09:53:21;;;;;;;8.63;2.88;;;;;;;17.47;52.03;101911.75;5118292;28;20096;-64
2022/05/13 09:55:48;;;;;;;6.85;2.80;;;;;;;17.56;50.89;101908.00;5118585;28;20054;-65
2022/05/13 09:58:29;;;;;;;6.95;2.35;;;;;;;17.51;50.69;101912.53;5118094;28;20055;-64
2022/05/13 10:01:07;;;;;;;7.60;2.70;;;;;;;17.46;50.70;101904.72;5118186;28;20038;-65
2022/05/13 10:03:37;;;;;;;8.38;2.58;;;;;;;17.75;50.59;101911.94;5118128;28;20035;-64
2022/05/13 10:06:08;;;;;;;9.00;2.60;;;;;;;17.74;50.73;101915.50;5117977;28;20355;-64
2022/05/13 10:08:35;;;;;;;10.70;2.67;;;;;;;17.62;50.79;101900.78;5117946;28;20031;-64
2022/05/13 10:13:59;;;;;;;5.35;1.92;;;;;;;17.65;49.62;101913.09;5118671;28;20150;-64
2022/05/13 10:16:45;;;;;;;8.95;2.40;;;;;;;17.64;50.14;101904.28;5117784;28;20046;-64
2022/05/13 10:19:23;;;;;;;6.40;2.15;;;;;;;17.40;49.82;101907.50;5114490;28;20062;-65
2022/05/13 10:22:09;;;;;;;9.93;2.67;;;;;;;17.40;50.90;101910.16;5117652;28;20067;-65
2022/05/13 10:24:44;;;;;;;6.63;2.67;;;;;;;17.24;50.97;101908.78;5117748;28;20035;-64
2022/05/13 10:27:26;;;;;;;7.45;2.22;;;;;;;17.21;51.65;101920.31;5117587;28;20031;-64
2022/05/13 10:29:57;;;;;;;8.35;2.58;;;;;;;17.23;50.53;101912.34;5117719;28;20035;-65
2022/05/13 10:32:48;;;;;;;5.90;2.33;;;;;;;17.29;50.59;101888.41;5117623;28;20457;-65
2022/05/13 10:35:20;;;;;;;11.15;2.80;;;;;;;17.86;50.51;101909.88;5116269;28;20044;-65
2022/05/13 10:38:05;;;;;;;;;;;;;;;18.36;49.36;101916.41;5117534;28;20332;-64
2022/05/13 10:40:39;;;;;;;7.68;2.40;;;;;;;17.98;48.39;101914.00;5116964;28;19923;-63
2022/05/13 10:43:26;;;;;;;8.57;2.30;;;;;;;17.88;48.58;101917.78;5117517;28;20039;-65
2022/05/13 10:45:52;;;;;;;6.55;2.17;;;;;;;17.88;48.63;101918.66;5117404;28;20108;-63
2022/05/13 10:48:30;;;;;;;8.00;2.45;;;;;;;18.13;48.80;101908.28;5117024;28;20031;-65
2022/05/13 10:51:15;;;;;;;5.80;2.30;;;;;;;18.40;48.66;101906.59;5116541;28;20032;-65
2022/05/13 10:54:22;;;;;;;9.48;2.45;;;;;;;18.60;49.22;101906.06;5117016;28;20055;-65
2022/05/13 10:56:58;;;;;;;9.02;2.83;;;;;;;18.53;47.92;101907.97;5116552;28;20408;-64
2022/05/13 10:59:29;;;;;;;6.78;2.75;;;;;;;18.34;48.20;101906.81;5116932;28;20042;-64
2022/05/13 11:02:35;;;;;;;6.65;2.47;;;;;;;18.32;48.72;101919.22;5116864;28;20093;-65
2022/05/13 11:05:18;;;;;;;9.18;2.50;;;;;;;18.41;47.79;101914.50;5115160;28;20057;-63
2022/05/13 11:07:50;;;;;;;7.75;2.33;;;;;;;18.69;46.85;101905.81;5116825;28;20020;-64
2022/05/13 11:10:32;;;;;;;7.72;2.35;;;;;;;18.94;46.30;101914.72;5116228;28;20459;-63
2022/05/13 11:13:24;;;;;;;7.07;2.50;;;;;;;19.37;46.26;101908.94;5116468;28;20127;-63
2022/05/13 11:16:11;;;;;;;7.35;2.65;;;;;;;19.60;45.97;101909.97;5116460;28;20032;-63
2022/05/13 11:18:59;;;;;;;8.65;2.25;;;;;;;19.91;45.08;101902.69;5116334;28;20023;-64
2022/05/13 11:21:24;;;;;;;6.88;2.00;;;;;;;19.93;43.14;101889.31;5116381;28;20028;-65
2022/05/13 11:27:17;;;;;;;5.80;2.60;;;;;;;19.69;44.86;101914.97;5116308;28;20058;-64
2022/05/13 11:30:06;;;;;;;7.68;2.80;;;;;;;19.48;44.94;101916.53;5116183;28;20024;-65
2022/05/13 11:32:58;;;;;;;11.68;2.75;;;;;;;19.24;45.43;101925.28;5116582;28;20055;-65
2022/05/13 11:35:38;;;;;;;7.07;2.30;;;;;;;19.08;44.72;101911.63;5116203;28;20023;-64
2022/05/13 11:38:14;;;;;;;8.75;2.72;;;;;;;18.83;45.12;101916.84;5116370;28;20043;-64
2022/05/13 11:40:42;;;;;;;6.50;2.70;;;;;;;18.78;44.42;101917.00;5115915;28;20027;-64
2022/05/13 11:43:38;;;;;;;7.10;2.75;;;;;;;18.93;45.83;101905.03;5116296;28;20042;-64
2022/05/13 11:46:27;;;;;;;8.82;2.50;;;;;;;19.40;45.00;101894.66;5116277;28;20102;-64
2022/05/13 11:49:24;;;;;;;6.75;2.40;;;;;;;19.27;44.63;101903.97;5115666;28;20077;-64
2022/05/13 11:51:49;;;;;;;8.05;2.40;;;;;;;19.38;44.69;101905.38;5115520;28;20468;-64
2022/05/13 11:54:19;;;;;;;7.38;2.58;;;;;;;19.63;43.91;101915.19;5115983;28;20070;-63